Главная страница
METAR-TAF:

METAR-TAF

Аэропорты :

Фэрбенкс

Фэрбанкс, Аляска, США

широта: 64-48-14N, долгота: 147-52-34W, высота над уровнем моря: 132 м

Текущие метеонаблюдения

Эта сводка был подготовлена 30 минут назад, в 04:53 UTC
Ветер 5 Узел от северо-восточный
Температура 2°C
Влажность 87%
Давление 997 hPa
Видимость: 16.1 км
Отдельные облака на высоте 7000 фута
Рассеянная облачность на высоте 10000 фута
Рассеянная облачность на высоте 12000 фута

METAR: PAFA 220453Z 05005KT 10SM SCT070 BKN100 BKN120 02/00 A2945 RMK AO2 SLP981 T00220000 $

Время: 21:23 (05:23 UTC)

Прогноз

Эта сводка был подготовлена 6 часа и 2 минут назад, в 23:21 UTC
Прогноз действительный с 22-го 00 UTC до 23-го 06 UTC
Ветер 3 Узел от северо-северо-восточный
Видимость: 10 км
Отдельные облака на высоте 6000 фута
Отдельные облака на высоте 10000 фута
Рассеянная облачность на высоте 15000 фута

TAF: PAFA 212321Z 2200/2306 02003KT P6SM SCT060 SCT100 BKN150

Метеонаблюдения и прогнозы для более 4000 аэропортов (сводки METAR и TAF).

Имеющиеся станции представлены на карте желтыми и красными точками.

Чтобы увидеть название станции, наведите на нее мышь.

Затем щелкните, чтобы увидеть метеонаблюдения и метеопрогнозы.

Управление картой: чтобы увеличить масштаб, щелкните зеленые кнопки с черным крестиком; чтобы уменьшить масштаб, щелкните зеленую кнопку с тире; для просмотра соседних карт щелкайте зеленые стрелки.


METAR-TAF: